KGSH/GSH METAR and TAF weather

Enter ICAO airport designator
Station Type Date Time Source
KGSH METAR 2024/06/15 22:53 UTC NOAA

KGSH 152253Z AUTO 14010KT 10SM CLR 27/12 A3009 RMK AO2 SLP184 T02720117


Station Type Date Time Source
KGSH Decoded METAR 2024/06/15 22:53 UTC NOAA

GOSHEN MUNICIPAL AIRPORT, IN, United States (KGSH) 41-32N 85-47W 252M
Jun 15, 2024 - 06:53 PM EDT / 2024.06.15 2253 UTC
Wind: from the SE (140 degrees) at 12 MPH (10 KT):0
Visibility: 10 mile(s):0
Sky conditions: clear
Temperature: 81.0 F (27.2 C)
Dew Point: 53.1 F (11.7 C)
Relative Humidity: 38%
Pressure (altimeter): 30.09 in. Hg (1018 hPa)
ob: KGSH 152253Z AUTO 14010KT 10SM CLR 27/12 A3009 RMK AO2 SLP184 T02720117
cycle: 23

Station Type Date Time Source
KGSH TAF UTC NOAA

Error!

Example: see airport list